Time;durP1;ratioP1;P1;durP2;ratioP2;P2;SDS_P1;SDS_P2;PMS_P1;PMS_P2;Temp;Humidity;BMP_temperature;BMP_pressure;BME280_temperature;BME280_humidity;BME280_pressure;Samples;Min_cycle;Max_cycle;Signal;HPM_P1;HPM_P2
2020/12/27 00:00:10;;;;;;;0.73;0.70;;;17.10;48.60;;;;;;4937387;28;20209;-54
2020/12/27 00:02:38;;;;;;;0.83;0.67;;;17.10;48.50;;;;;;4946903;29;20202;-53
2020/12/27 00:05:05;;;;;;;0.83;0.30;;;17.10;48.30;;;;;;4936196;28;20215;-54
2020/12/27 00:07:34;;;;;;;1.07;0.70;;;17.10;48.30;;;;;;4949453;28;20227;-54
2020/12/27 00:10:01;;;;;;;0.83;0.47;;;17.00;48.20;;;;;;4958780;28;20205;-53
2020/12/27 00:12:27;;;;;;;0.70;0.60;;;17.00;48.20;;;;;;4963331;28;20224;-53
2020/12/27 00:14:53;;;;;;;0.70;0.50;;;17.00;48.30;;;;;;4956437;28;20205;-54
2020/12/27 00:17:19;;;;;;;0.83;0.40;;;17.00;48.30;;;;;;4965902;28;20201;-54
2020/12/27 00:19:45;;;;;;;1.50;0.60;;;17.00;48.30;;;;;;4958030;28;20212;-53
2020/12/27 00:22:13;;;;;;;0.30;0.27;;;16.90;48.10;;;;;;4954700;28;20209;-54
2020/12/27 00:24:39;;;;;;;0.70;0.67;;;16.90;48.10;;;;;;4958861;28;20205;-53
2020/12/27 00:27:05;;;;;;;0.77;0.70;;;16.90;48.70;;;;;;4966569;28;20194;-54
2020/12/27 00:29:31;;;;;;;0.50;0.43;;;16.90;48.00;;;;;;4957799;28;20243;-54
2020/12/27 00:31:58;;;;;;;0.57;0.57;;;16.90;48.30;;;;;;4954059;28;20206;-54
2020/12/27 00:34:24;;;;;;;0.40;0.40;;;16.90;48.20;;;;;;4962094;28;20204;-53
2020/12/27 00:36:56;;;;;;;0.40;0.40;;;16.90;48.40;;;;;;4953452;28;20197;-54
2020/12/27 00:39:24;;;;;;;0.60;0.60;;;16.90;48.40;;;;;;4965505;28;20212;-54
2020/12/27 00:41:50;;;;;;;2.57;0.40;;;16.90;48.50;;;;;;4957174;28;20209;-54
2020/12/27 00:44:18;;;;;;;1.33;0.40;;;16.80;48.30;;;;;;4965544;28;20216;-53
2020/12/27 00:46:50;;;;;;;0.57;0.40;;;16.80;48.40;;;;;;4958936;28;20193;-54
2020/12/27 00:49:20;;;;;;;0.97;0.60;;;16.80;48.40;;;;;;4962432;28;20200;-54
2020/12/27 00:51:46;;;;;;;0.40;0.40;;;16.80;48.50;;;;;;4951820;28;20215;-54
2020/12/27 00:54:13;;;;;;;0.43;0.40;;;16.80;48.80;;;;;;4964162;28;20232;-54
2020/12/27 00:56:39;;;;;;;0.40;0.40;;;16.80;48.50;;;;;;4951113;28;20217;-54
2020/12/27 00:59:06;;;;;;;0.30;0.20;;;16.80;48.50;;;;;;4966867;28;20215;-54
2020/12/27 01:01:32;;;;;;;0.50;0.50;;;16.80;48.40;;;;;;4953424;28;20217;-53
2020/12/27 01:03:58;;;;;;;0.53;0.53;;;16.80;48.50;;;;;;4960154;28;20587;-53
2020/12/27 01:06:26;;;;;;;0.60;0.40;;;16.70;48.50;;;;;;4958096;28;20211;-54
2020/12/27 01:09:00;;;;;;;0.70;0.50;;;16.70;48.60;;;;;;4964294;28;20201;-54
2020/12/27 01:11:26;;;;;;;0.57;0.57;;;16.70;48.50;;;;;;4955982;28;20688;-54
2020/12/27 01:13:52;;;;;;;0.60;0.57;;;16.70;48.50;;;;;;4961975;28;20209;-54
2020/12/27 01:16:19;;;;;;;0.50;0.50;;;16.70;48.60;;;;;;4955612;28;20720;-53
2020/12/27 01:18:55;;;;;;;1.27;0.50;;;16.70;48.70;;;;;;4961670;28;20193;-55
2020/12/27 01:21:32;;;;;;;0.60;0.60;;;16.70;48.70;;;;;;4967756;28;20203;-54
2020/12/27 01:23:59;;;;;;;0.77;0.70;;;16.70;48.80;;;;;;4968971;28;20220;-54
2020/12/27 01:26:28;;;;;;;0.80;0.80;;;16.70;48.70;;;;;;4965358;28;20213;-54
2020/12/27 01:28:54;;;;;;;1.07;0.93;;;16.60;48.50;;;;;;4959181;28;20220;-53
2020/12/27 01:31:21;;;;;;;0.73;0.73;;;16.60;48.40;;;;;;4965209;28;20208;-53
2020/12/27 01:33:48;;;;;;;0.80;0.67;;;16.60;48.40;;;;;;4949725;28;20204;-53
2020/12/27 01:36:27;;;;;;;0.77;0.63;;;16.50;48.40;;;;;;4965606;28;20228;-54
2020/12/27 01:38:53;;;;;;;0.80;0.80;;;16.50;48.40;;;;;;4944998;28;20205;-54
2020/12/27 01:41:21;;;;;;;1.00;0.87;;;16.50;48.30;;;;;;4957386;28;20216;-54
2020/12/27 01:43:58;;;;;;;0.80;0.80;;;16.50;48.30;;;;;;4951228;28;20213;-54
2020/12/27 01:46:25;;;;;;;2.50;1.20;;;16.50;48.40;;;;;;4962488;28;20251;-54
2020/12/27 01:48:51;;;;;;;1.10;0.80;;;16.50;48.40;;;;;;4952091;28;20220;-53
2020/12/27 01:51:17;;;;;;;1.10;1.00;;;16.50;48.30;;;;;;4966634;28;20234;-53
2020/12/27 01:53:44;;;;;;;1.30;1.20;;;16.50;48.90;;;;;;4952683;28;20214;-54
2020/12/27 01:56:14;;;;;;;1.33;1.00;;;16.40;48.00;;;;;;4966723;28;20229;-53
2020/12/27 01:58:45;;;;;;;0.97;0.97;;;16.40;48.20;;;;;;4955538;28;20200;-54
2020/12/27 02:01:11;;;;;;;1.37;0.90;;;16.40;48.30;;;;;;4966982;28;20221;-54
2020/12/27 02:03:38;;;;;;;0.70;0.70;;;16.40;48.20;;;;;;4952474;28;20213;-53
2020/12/27 02:06:05;;;;;;;1.20;0.83;;;16.40;48.20;;;;;;4960742;28;20215;-54
2020/12/27 02:08:32;;;;;;;0.90;0.90;;;16.40;48.30;;;;;;4960553;28;20875;-53
2020/12/27 02:10:59;;;;;;;1.77;1.10;;;16.40;48.20;;;;;;4963612;28;20276;-54
2020/12/27 02:13:25;;;;;;;1.30;1.10;;;16.30;48.20;;;;;;4965511;28;20289;-53
2020/12/27 02:15:52;;;;;;;1.73;1.20;;;16.40;48.20;;;;;;4958261;28;20232;-53
2020/12/27 02:18:18;;;;;;;1.03;0.80;;;16.40;48.20;;;;;;4966634;28;20208;-53
2020/12/27 02:20:44;;;;;;;1.83;1.00;;;16.30;48.20;;;;;;4958202;28;20194;-53
2020/12/27 02:23:14;;;;;;;1.03;0.97;;;16.30;48.30;;;;;;4965429;28;20515;-53
2020/12/27 02:25:40;;;;;;;1.37;1.10;;;16.30;48.20;;;;;;4958560;28;20201;-53
2020/12/27 02:28:07;;;;;;;0.83;0.83;;;16.30;48.90;;;;;;4968625;28;20201;-54
2020/12/27 02:30:33;;;;;;;0.87;0.83;;;16.30;48.40;;;;;;4959753;28;20217;-53
2020/12/27 02:32:59;;;;;;;0.87;0.87;;;16.30;48.40;;;;;;4965738;28;20935;-53
2020/12/27 02:35:25;;;;;;;1.30;0.87;;;16.30;48.40;;;;;;4958961;28;20810;-54
2020/12/27 02:37:52;;;;;;;1.03;0.90;;;16.30;48.40;;;;;;4967296;28;20590;-54
2020/12/27 02:40:18;;;;;;;2.30;1.03;;;16.30;48.30;;;;;;4951712;28;20677;-54
2020/12/27 02:42:44;;;;;;;1.07;0.97;;;16.20;48.20;;;;;;4967489;28;20215;-53
2020/12/27 02:45:10;;;;;;;1.00;1.00;;;16.30;48.30;;;;;;4955835;28;20573;-54
2020/12/27 02:47:40;;;;;;;1.87;1.00;;;16.20;48.30;;;;;;4967475;28;20216;-53
2020/12/27 02:50:09;;;;;;;1.20;0.80;;;16.20;48.30;;;;;;4955242;28;20207;-53
2020/12/27 02:52:37;;;;;;;1.90;0.80;;;16.10;48.00;;;;;;4966281;28;20205;-54
2020/12/27 02:55:03;;;;;;;1.07;0.80;;;16.10;47.90;;;;;;4963076;28;20225;-54
2020/12/27 02:57:30;;;;;;;0.87;0.70;;;16.20;48.10;;;;;;4957959;28;20209;-53
2020/12/27 02:59:56;;;;;;;1.13;1.00;;;16.10;48.00;;;;;;4962314;28;20197;-53
2020/12/27 03:02:22;;;;;;;1.20;0.73;;;16.10;48.00;;;;;;4956258;28;20201;-54
2020/12/27 03:04:49;;;;;;;1.63;0.90;;;16.10;47.90;;;;;;4960571;28;20204;-53
2020/12/27 03:07:15;;;;;;;1.00;0.70;;;16.10;48.10;;;;;;4951503;28;20232;-53
2020/12/27 03:09:42;;;;;;;0.80;0.80;;;16.10;47.80;;;;;;4963476;28;20197;-54
2020/12/27 03:12:08;;;;;;;1.57;0.67;;;16.10;47.90;;;;;;4958376;28;20209;-54
2020/12/27 03:14:34;;;;;;;1.00;0.90;;;16.10;47.90;;;;;;4963609;28;20205;-54
2020/12/27 03:17:00;;;;;;;1.13;0.73;;;16.10;48.10;;;;;;4954978;28;20290;-53
2020/12/27 03:19:26;;;;;;;0.80;0.80;;;16.10;48.30;;;;;;4968241;28;20205;-53
2020/12/27 03:21:53;;;;;;;1.23;0.90;;;16.10;48.30;;;;;;4956038;28;20209;-53
2020/12/27 03:24:19;;;;;;;0.83;0.80;;;16.10;48.30;;;;;;4966718;28;20224;-53
2020/12/27 03:26:45;;;;;;;1.13;0.83;;;16.10;48.30;;;;;;4959921;28;20201;-54
2020/12/27 03:29:12;;;;;;;2.53;0.90;;;16.10;48.30;;;;;;4968321;28;20223;-53
2020/12/27 03:31:38;;;;;;;0.83;0.70;;;16.10;48.20;;;;;;4968615;28;20712;-53
2020/12/27 03:34:05;;;;;;;1.30;0.97;;;16.00;48.10;;;;;;4958618;28;20572;-53
2020/12/27 03:36:43;;;;;;;1.17;0.87;;;16.00;48.10;;;;;;4967075;28;20291;-53
2020/12/27 03:39:09;;;;;;;0.80;0.67;;;16.00;48.10;;;;;;4958509;28;20268;-54
2020/12/27 03:41:36;;;;;;;1.10;0.90;;;16.00;48.30;;;;;;4961970;28;20205;-54
2020/12/27 03:44:02;;;;;;;1.50;1.07;;;16.00;48.30;;;;;;4961384;28;20216;-54
2020/12/27 03:46:28;;;;;;;0.80;0.80;;;16.00;48.30;;;;;;4965493;28;20201;-53
2020/12/27 03:48:55;;;;;;;0.80;0.80;;;16.00;48.50;;;;;;4956342;28;20201;-54
2020/12/27 03:51:22;;;;;;;0.63;0.63;;;16.00;48.30;;;;;;4961467;28;20203;-54
2020/12/27 03:53:48;;;;;;;1.00;0.90;;;16.00;48.50;;;;;;4959038;28;20816;-54
2020/12/27 03:56:15;;;;;;;1.33;0.70;;;16.00;48.40;;;;;;4951429;28;20636;-53
2020/12/27 03:58:41;;;;;;;0.90;0.60;;;16.00;48.40;;;;;;4934992;28;20212;-53
2020/12/27 04:01:08;;;;;;;0.77;0.70;;;16.00;48.50;;;;;;4965847;28;20236;-54
2020/12/27 04:03:34;;;;;;;0.80;0.73;;;15.90;48.30;;;;;;4953113;28;20194;-54
2020/12/27 04:06:02;;;;;;;1.00;0.83;;;15.90;48.10;;;;;;4961633;28;20201;-53
2020/12/27 04:08:29;;;;;;;0.83;0.80;;;15.90;48.30;;;;;;4954476;28;20877;-53
2020/12/27 04:10:56;;;;;;;0.60;0.60;;;15.90;48.30;;;;;;4965602;28;20201;-53
2020/12/27 04:13:22;;;;;;;0.87;0.70;;;15.90;48.30;;;;;;4965794;28;20228;-54
2020/12/27 04:15:49;;;;;;;0.73;0.70;;;15.90;48.20;;;;;;4958024;28;20235;-53
2020/12/27 04:18:15;;;;;;;0.70;0.50;;;15.90;48.20;;;;;;4963181;28;20560;-53
2020/12/27 04:20:42;;;;;;;0.90;0.90;;;15.90;48.30;;;;;;4958436;28;20220;-53
2020/12/27 04:23:08;;;;;;;0.60;0.60;;;15.90;48.20;;;;;;4963048;28;20898;-53
2020/12/27 04:25:34;;;;;;;0.50;0.50;;;15.90;48.20;;;;;;4956154;28;20224;-54
2020/12/27 04:28:00;;;;;;;2.00;0.60;;;15.80;48.20;;;;;;4967598;28;20220;-53
2020/12/27 04:30:27;;;;;;;0.60;0.50;;;15.80;48.10;;;;;;4955432;28;20206;-53
2020/12/27 04:32:53;;;;;;;0.70;0.57;;;15.80;48.10;;;;;;4966426;28;20212;-53
2020/12/27 04:35:19;;;;;;;0.50;0.50;;;15.80;48.10;;;;;;4959107;28;20701;-53
2020/12/27 04:37:51;;;;;;;0.87;0.60;;;15.80;48.10;;;;;;4958528;28;20201;-53
2020/12/27 04:40:18;;;;;;;2.33;0.60;;;15.80;48.20;;;;;;4958258;28;20219;-53
2020/12/27 04:42:48;;;;;;;0.60;0.60;;;15.80;48.10;;;;;;4963221;28;20189;-54
2020/12/27 04:45:15;;;;;;;1.57;0.73;;;15.70;48.10;;;;;;4960320;28;20220;-54
2020/12/27 04:47:42;;;;;;;0.50;0.47;;;15.80;48.40;;;;;;4957876;28;20208;-53
2020/12/27 04:50:08;;;;;;;0.40;0.40;;;15.70;48.50;;;;;;4961015;28;20736;-53
2020/12/27 04:52:34;;;;;;;0.77;0.63;;;15.80;48.60;;;;;;4958109;28;20201;-54
2020/12/27 04:55:01;;;;;;;0.67;0.40;;;15.80;48.90;;;;;;4964985;28;20208;-53
2020/12/27 04:57:34;;;;;;;1.33;0.37;;;15.80;48.70;;;;;;4956746;28;20202;-54
2020/12/27 05:00:06;;;;;;;0.37;0.23;;;15.80;48.60;;;;;;4965391;28;20638;-53
2020/12/27 05:02:32;;;;;;;2.10;0.40;;;15.80;48.70;;;;;;4954131;28;20194;-53
2020/12/27 05:05:01;;;;;;;0.30;0.23;;;15.80;48.70;;;;;;4964382;28;20241;-54
2020/12/27 05:07:43;;;;;;;0.50;0.37;;;15.80;48.80;;;;;;4955990;28;20248;-53
2020/12/27 05:10:10;;;;;;;0.30;0.30;;;15.80;48.90;;;;;;4967972;28;20201;-54
2020/12/27 05:12:37;;;;;;;0.40;0.40;;;15.80;49.00;;;;;;4953601;28;20204;-53
2020/12/27 05:15:05;;;;;;;0.50;0.40;;;15.80;49.00;;;;;;4966481;28;20263;-53
2020/12/27 05:17:31;;;;;;;1.27;0.40;;;15.80;49.00;;;;;;4955724;28;20205;-54
2020/12/27 05:19:58;;;;;;;0.80;0.60;;;15.80;49.10;;;;;;4968583;28;20212;-53
2020/12/27 05:22:24;;;;;;;0.40;0.30;;;15.80;49.20;;;;;;4959769;28;20208;-54
2020/12/27 05:24:52;;;;;;;0.50;0.30;;;15.80;49.20;;;;;;4964983;28;20197;-54
2020/12/27 05:27:18;;;;;;;0.40;0.37;;;15.70;49.30;;;;;;4960601;28;20205;-53
2020/12/27 05:29:44;;;;;;;0.30;0.30;;;15.70;49.10;;;;;;4954513;28;20201;-53
2020/12/27 05:32:11;;;;;;;0.83;0.43;;;15.70;49.10;;;;;;4960953;28;20214;-53
2020/12/27 05:34:37;;;;;;;0.50;0.40;;;15.70;49.10;;;;;;4971135;28;20211;-53
2020/12/27 05:37:06;;;;;;;0.20;0.20;;;15.70;49.50;;;;;;4951129;28;20233;-53
2020/12/27 05:39:32;;;;;;;0.43;0.30;;;15.80;49.50;;;;;;4961515;28;20204;-53
2020/12/27 05:42:06;;;;;;;0.33;0.30;;;15.70;49.60;;;;;;4965059;28;20208;-53
2020/12/27 05:44:37;;;;;;;0.30;0.30;;;15.80;49.70;;;;;;4954159;28;20809;-54
2020/12/27 05:47:03;;;;;;;0.30;0.23;;;15.80;49.80;;;;;;4967228;28;20197;-54
2020/12/27 05:49:30;;;;;;;0.60;0.30;;;15.70;50.10;;;;;;4962367;28;20220;-54
2020/12/27 05:51:59;;;;;;;0.30;0.30;;;15.70;49.30;;;;;;4967824;28;20671;-54
2020/12/27 05:54:36;;;;;;;0.90;0.20;;;15.70;49.80;;;;;;4958924;28;20550;-54
2020/12/27 05:57:04;;;;;;;0.30;0.20;;;15.70;49.50;;;;;;4969040;28;20327;-54
2020/12/27 05:59:35;;;;;;;0.93;0.30;;;15.70;49.70;;;;;;4963563;28;20293;-54
2020/12/27 06:02:02;;;;;;;0.20;0.10;;;15.70;50.00;;;;;;4966235;28;20192;-54
2020/12/27 06:04:57;;;;;;;0.30;0.20;;;15.70;50.00;;;;;;4962301;28;20859;-54
2020/12/27 06:07:46;;;;;;;0.50;0.30;;;15.70;49.80;;;;;;4969494;28;20240;-54
2020/12/27 06:10:15;;;;;;;0.27;0.27;;;15.70;49.70;;;;;;4957033;28;20213;-54
2020/12/27 06:13:22;;;;;;;1.53;0.43;;;15.70;49.50;;;;;;4962662;28;20647;-54
2020/12/27 06:15:56;;;;;;;1.80;0.20;;;15.60;49.20;;;;;;4961105;28;20233;-54
2020/12/27 06:18:26;;;;;;;0.40;0.20;;;15.60;49.70;;;;;;4962718;28;20551;-54
2020/12/27 06:21:19;;;;;;;0.33;0.33;;;15.60;49.20;;;;;;4959397;28;20202;-54
2020/12/27 06:23:47;;;;;;;0.33;0.33;;;15.60;49.70;;;;;;4955879;28;20201;-54
2020/12/27 06:26:13;;;;;;;1.60;0.43;;;15.60;49.40;;;;;;4962907;28;20213;-54
2020/12/27 06:28:40;;;;;;;0.67;0.20;;;15.60;49.50;;;;;;4964809;28;20244;-54
2020/12/27 06:31:09;;;;;;;0.27;0.27;;;15.70;49.60;;;;;;4959180;28;20225;-54
2020/12/27 06:33:38;;;;;;;0.50;0.30;;;15.70;49.70;;;;;;4966978;28;20204;-54
2020/12/27 06:36:05;;;;;;;0.20;0.20;;;15.60;49.40;;;;;;4961975;28;20228;-54
2020/12/27 06:38:39;;;;;;;0.10;0.10;;;15.60;49.10;;;;;;4963611;28;20196;-54
2020/12/27 06:41:09;;;;;;;0.17;0.10;;;15.60;49.20;;;;;;4962131;28;20205;-54
2020/12/27 06:43:41;;;;;;;0.20;0.20;;;15.60;49.10;;;;;;4964945;28;20604;-54
2020/12/27 06:46:26;;;;;;;0.20;0.20;;;15.60;49.20;;;;;;4957017;28;20219;-54
2020/12/27 06:49:14;;;;;;;0.27;0.20;;;15.60;49.20;;;;;;4969307;28;20220;-54
2020/12/27 06:51:44;;;;;;;0.20;0.20;;;15.60;49.00;;;;;;4958022;28;20220;-54
2020/12/27 06:54:12;;;;;;;0.50;0.43;;;15.60;49.20;;;;;;4964820;28;20601;-54
2020/12/27 06:56:43;;;;;;;0.63;0.20;;;15.60;49.10;;;;;;4958495;28;20250;-54
2020/12/27 06:59:10;;;;;;;0.20;0.20;;;15.60;49.00;;;;;;4951857;28;20212;-54
2020/12/27 07:01:36;;;;;;;0.20;0.20;;;15.60;48.90;;;;;;4956718;28;20201;-54
2020/12/27 07:04:14;;;;;;;0.20;0.20;;;15.60;48.90;;;;;;4967838;28;20619;-54
2020/12/27 07:06:47;;;;;;;0.20;0.20;;;15.50;48.70;;;;;;4958872;28;20236;-54
2020/12/27 07:09:31;;;;;;;0.20;0.20;;;15.50;48.90;;;;;;4962131;28;20255;-54
2020/12/27 07:12:11;;;;;;;0.67;0.50;;;15.50;48.80;;;;;;4957474;28;20201;-54
2020/12/27 07:14:41;;;;;;;0.47;0.20;;;15.50;48.80;;;;;;4956220;28;20743;-54
2020/12/27 07:17:10;;;;;;;0.40;0.37;;;15.50;48.90;;;;;;4956873;28;20556;-54
2020/12/27 07:19:38;;;;;;;0.13;0.10;;;15.50;48.60;;;;;;4951222;28;20647;-54
2020/12/27 07:22:05;;;;;;;0.40;0.40;;;15.50;48.70;;;;;;4960146;28;20216;-54
2020/12/27 07:24:37;;;;;;;0.30;0.20;;;15.40;48.50;;;;;;4954446;28;20198;-54
2020/12/27 07:27:05;;;;;;;0.40;0.20;;;15.40;48.80;;;;;;4960613;28;20228;-54
2020/12/27 07:29:35;;;;;;;0.83;0.20;;;15.40;48.80;;;;;;4963671;28;20705;-55
2020/12/27 07:32:01;;;;;;;0.20;0.20;;;15.40;48.80;;;;;;4967206;28;20267;-54
2020/12/27 07:34:31;;;;;;;1.03;0.60;;;15.40;48.80;;;;;;4961082;28;20213;-54
2020/12/27 07:37:05;;;;;;;0.30;0.20;;;15.40;48.90;;;;;;4972790;28;20228;-53
2020/12/27 07:39:57;;;;;;;0.93;0.50;;;15.40;48.80;;;;;;4965516;28;20197;-53
2020/12/27 07:42:26;;;;;;;0.20;0.20;;;15.40;48.70;;;;;;4966646;28;20255;-54
2020/12/27 07:44:53;;;;;;;0.20;0.20;;;15.40;48.90;;;;;;4959547;28;20210;-54
2020/12/27 07:47:20;;;;;;;0.20;0.20;;;15.40;48.80;;;;;;4976258;28;20220;-53
2020/12/27 07:50:20;;;;;;;0.30;0.20;;;15.40;48.80;;;;;;4953648;28;20575;-54
2020/12/27 07:53:00;;;;;;;0.57;0.20;;;15.30;48.60;;;;;;4969139;28;20563;-53
2020/12/27 07:55:56;;;;;;;0.20;0.10;;;15.40;48.80;;;;;;4963623;28;20209;-55
2020/12/27 07:58:30;;;;;;;0.30;0.20;;;15.30;48.80;;;;;;4946538;28;20209;-54
2020/12/27 08:00:56;;;;;;;0.13;0.07;;;15.40;48.70;;;;;;4965163;28;20212;-55
2020/12/27 08:03:24;;;;;;;0.33;0.20;;;15.30;48.60;;;;;;4954537;28;20201;-54
2020/12/27 08:05:59;;;;;;;1.43;0.30;;;15.30;48.60;;;;;;4965282;28;20213;-55
2020/12/27 08:08:25;;;;;;;0.23;0.10;;;15.30;48.60;;;;;;4962251;28;20232;-54
2020/12/27 08:10:53;;;;;;;1.30;0.30;;;15.30;48.80;;;;;;4968881;28;20197;-55
2020/12/27 08:13:31;;;;;;;1.03;0.30;;;15.30;49.50;;;;;;4959965;28;20219;-55
2020/12/27 08:16:02;;;;;;;0.57;0.37;;;15.30;48.90;;;;;;4963973;28;20221;-55
2020/12/27 08:18:28;;;;;;;1.70;0.33;;;15.30;49.00;;;;;;4962475;28;20201;-55
2020/12/27 08:21:05;;;;;;;1.23;0.23;;;15.30;49.00;;;;;;4956348;28;20201;-54
2020/12/27 08:23:31;;;;;;;0.20;0.20;;;15.30;49.10;;;;;;4961460;28;20196;-54
2020/12/27 08:26:00;;;;;;;2.20;0.20;;;15.30;48.90;;;;;;4947757;28;20218;-54
2020/12/27 08:28:27;;;;;;;0.63;0.10;;;15.20;48.80;;;;;;4967134;28;20236;-54
2020/12/27 08:30:53;;;;;;;0.30;0.20;;;15.20;49.00;;;;;;4954231;28;20217;-55
2020/12/27 08:33:20;;;;;;;0.40;0.20;;;15.20;49.00;;;;;;4964937;28;20665;-54
2020/12/27 08:35:48;;;;;;;0.30;0.30;;;15.20;49.40;;;;;;4954583;28;20225;-55
2020/12/27 08:38:30;;;;;;;0.80;0.30;;;15.20;49.50;;;;;;4965386;28;20556;-55
2020/12/27 08:41:14;;;;;;;0.20;0.20;;;15.30;49.50;;;;;;4957380;28;20208;-55
2020/12/27 08:43:46;;;;;;;1.03;0.30;;;15.20;49.10;;;;;;4963503;28;20198;-55
2020/12/27 08:46:18;;;;;;;1.07;0.20;;;15.20;49.20;;;;;;4955840;28;20209;-55
2020/12/27 08:49:01;;;;;;;0.87;0.30;;;15.30;49.50;;;;;;4963265;28;20198;-55
2020/12/27 08:51:50;;;;;;;0.47;0.27;;;15.30;49.40;;;;;;4953482;28;20217;-55
2020/12/27 08:54:19;;;;;;;2.17;0.43;;;15.20;49.50;;;;;;4961982;28;20650;-55
2020/12/27 08:56:50;;;;;;;2.33;0.30;;;15.20;49.30;;;;;;4952865;28;20232;-55
2020/12/27 08:59:31;;;;;;;0.47;0.23;;;15.20;49.50;;;;;;4959355;28;20206;-55
2020/12/27 09:02:08;;;;;;;0.40;0.30;;;15.20;49.30;;;;;;4952353;28;20654;-55
2020/12/27 09:04:35;;;;;;;0.47;0.30;;;15.20;49.30;;;;;;4964321;28;20287;-55
2020/12/27 09:07:02;;;;;;;0.30;0.30;;;15.20;49.30;;;;;;4948155;28;20229;-55
2020/12/27 09:09:33;;;;;;;0.27;0.20;;;15.20;49.40;;;;;;4957159;28;20197;-55
2020/12/27 09:12:08;;;;;;;0.30;0.20;;;15.20;49.70;;;;;;4955065;28;20209;-54
2020/12/27 09:14:36;;;;;;;0.27;0.27;;;15.20;49.40;;;;;;4956379;28;20208;-55
2020/12/27 09:17:05;;;;;;;1.07;0.30;;;15.20;49.60;;;;;;4955347;28;20242;-53
2020/12/27 09:19:34;;;;;;;0.20;0.20;;;15.20;49.60;;;;;;4965626;28;20193;-53
2020/12/27 09:22:05;;;;;;;2.60;0.50;;;15.20;49.60;;;;;;4956739;28;20309;-54
2020/12/27 09:24:33;;;;;;;2.00;0.40;;;15.20;49.60;;;;;;4964496;28;20209;-54
2020/12/27 09:27:09;;;;;;;3.13;0.30;;;15.20;50.00;;;;;;4954230;28;20664;-54
2020/12/27 09:29:35;;;;;;;1.27;0.30;;;15.10;50.00;;;;;;4957974;28;20224;-55
2020/12/27 09:32:12;;;;;;;0.43;0.43;;;15.10;49.90;;;;;;4952242;28;20212;-55
2020/12/27 09:34:39;;;;;;;5.30;0.43;;;15.20;49.70;;;;;;4959408;28;20584;-55
2020/12/27 09:37:17;;;;;;;1.50;0.30;;;15.10;49.60;;;;;;4947348;28;20323;-55
2020/12/27 09:39:56;;;;;;;1.53;0.60;;;15.10;49.90;;;;;;4954425;28;20204;-55
2020/12/27 09:42:24;;;;;;;1.77;0.43;;;15.10;49.80;;;;;;4943453;28;20685;-55
2020/12/27 09:44:52;;;;;;;0.50;0.40;;;15.20;50.00;;;;;;4952646;28;20198;-56
2020/12/27 09:47:36;;;;;;;0.30;0.30;;;15.20;50.20;;;;;;4966097;28;20279;-54
2020/12/27 09:50:08;;;;;;;0.20;0.20;;;15.20;50.00;;;;;;4963852;28;20197;-54
2020/12/27 09:52:44;;;;;;;0.50;0.30;;;15.10;50.20;;;;;;4964026;28;20209;-54
2020/12/27 09:55:12;;;;;;;0.80;0.10;;;15.10;50.00;;;;;;4956659;28;20193;-54
2020/12/27 09:57:38;;;;;;;0.77;0.40;;;15.10;50.90;;;;;;4967882;28;20684;-53
2020/12/27 10:00:05;;;;;;;15.10;3.70;;;15.10;51.70;;;;;;4953211;28;21670;-54
2020/12/27 10:02:31;;;;;;;33.60;6.73;;;15.10;52.50;;;;;;4963926;28;20598;-55
2020/12/27 10:04:58;;;;;;;21.73;5.60;;;15.10;53.90;;;;;;4949919;28;20575;-55
2020/12/27 10:07:24;;;;;;;26.73;6.10;;;15.10;54.00;;;;;;4964302;28;20252;-55
2020/12/27 10:09:51;;;;;;;22.50;4.20;;;15.10;56.40;;;;;;4957542;28;20216;-55
2020/12/27 10:12:21;;;;;;;15.17;3.40;;;15.20;55.90;;;;;;4961906;28;20205;-55
2020/12/27 10:14:48;;;;;;;10.90;3.23;;;15.20;54.60;;;;;;4951570;28;20210;-54
2020/12/27 10:17:14;;;;;;;13.67;3.07;;;15.20;54.40;;;;;;4960553;28;20232;-54
2020/12/27 10:19:41;;;;;;;13.60;2.70;;;15.30;54.50;;;;;;4953027;28;20209;-54
2020/12/27 10:22:08;;;;;;;9.57;2.23;;;15.60;55.40;;;;;;4970213;28;20244;-55
2020/12/27 10:24:36;;;;;;;12.73;2.77;;;15.80;55.40;;;;;;4952349;28;20237;-53
2020/12/27 10:27:05;;;;;;;10.17;2.47;;;16.00;55.70;;;;;;4961616;28;20209;-53
2020/12/27 10:29:31;;;;;;;16.33;2.10;;;16.00;55.50;;;;;;4955091;28;20201;-54
2020/12/27 10:32:03;;;;;;;5.87;1.43;;;15.90;55.10;;;;;;4965450;28;20211;-54
2020/12/27 10:34:30;;;;;;;8.40;1.53;;;16.00;54.70;;;;;;4944368;28;20198;-54
2020/12/27 10:36:59;;;;;;;5.50;1.30;;;16.00;54.10;;;;;;4966012;28;20228;-54
2020/12/27 10:39:27;;;;;;;4.63;1.17;;;16.00;53.80;;;;;;4964653;28;20201;-54
2020/12/27 10:41:54;;;;;;;7.90;1.60;;;16.00;53.60;;;;;;4957492;28;20209;-54
2020/12/27 10:44:22;;;;;;;4.87;1.13;;;16.00;53.30;;;;;;4962878;28;20216;-54
2020/12/27 10:46:52;;;;;;;4.17;1.10;;;16.10;53.10;;;;;;4948696;28;20208;-54
2020/12/27 10:49:20;;;;;;;3.53;0.87;;;16.10;52.50;;;;;;4963600;28;20761;-54
2020/12/27 10:51:47;;;;;;;4.47;1.13;;;16.10;52.00;;;;;;4958531;28;20228;-55
2020/12/27 10:54:13;;;;;;;4.17;1.10;;;16.10;52.10;;;;;;4965664;28;20212;-54
2020/12/27 10:56:42;;;;;;;4.20;0.97;;;16.20;51.90;;;;;;4964423;28;20232;-54
2020/12/27 10:59:09;;;;;;;1.10;0.80;;;16.20;51.40;;;;;;4967029;28;20217;-54
2020/12/27 11:01:35;;;;;;;0.93;0.50;;;16.20;51.60;;;;;;4958790;28;20198;-54
2020/12/27 11:04:01;;;;;;;2.10;0.57;;;16.20;51.30;;;;;;4963335;28;20208;-55
2020/12/27 11:06:31;;;;;;;2.67;0.70;;;16.20;51.50;;;;;;4952803;28;20213;-55
2020/12/27 11:08:58;;;;;;;2.90;0.70;;;16.30;51.70;;;;;;4965866;28;20669;-54
2020/12/27 11:11:31;;;;;;;3.33;1.00;;;16.40;51.40;;;;;;4954013;28;20260;-55
2020/12/27 11:13:58;;;;;;;3.97;0.60;;;16.40;52.10;;;;;;4963900;28;20205;-54
2020/12/27 11:16:24;;;;;;;4.73;0.60;;;16.40;52.40;;;;;;4960474;28;20580;-53
2020/12/27 11:18:51;;;;;;;2.07;0.50;;;16.40;51.40;;;;;;4965525;28;20198;-53
2020/12/27 11:21:17;;;;;;;1.40;0.57;;;16.40;51.70;;;;;;4962995;28;20185;-53
2020/12/27 11:23:43;;;;;;;1.80;0.40;;;16.30;51.40;;;;;;4941289;28;20197;-53
2020/12/27 11:26:10;;;;;;;0.57;0.20;;;16.30;51.30;;;;;;4952250;28;20601;-55
2020/12/27 11:28:36;;;;;;;0.40;0.40;;;16.20;51.10;;;;;;4961195;28;20811;-53
2020/12/27 11:31:03;;;;;;;0.73;0.30;;;16.20;51.30;;;;;;4968213;28;20596;-53
2020/12/27 11:33:29;;;;;;;1.20;0.50;;;16.10;50.60;;;;;;4962277;28;20209;-54
2020/12/27 11:35:55;;;;;;;0.63;0.33;;;16.10;51.50;;;;;;4964077;28;20247;-54
2020/12/27 11:38:21;;;;;;;0.67;0.30;;;16.10;50.70;;;;;;4950611;28;20209;-53
2020/12/27 11:40:48;;;;;;;2.10;0.20;;;16.00;50.70;;;;;;4965496;28;20215;-54
2020/12/27 11:43:14;;;;;;;0.33;0.20;;;16.10;51.00;;;;;;4934384;28;20194;-53
2020/12/27 11:45:40;;;;;;;0.30;0.10;;;16.10;51.10;;;;;;4962667;28;20201;-54
2020/12/27 11:48:07;;;;;;;0.87;0.30;;;16.00;51.20;;;;;;4948227;28;20821;-53
2020/12/27 11:50:33;;;;;;;1.57;0.30;;;16.10;51.40;;;;;;4947626;28;20204;-54
2020/12/27 11:53:00;;;;;;;0.80;0.30;;;16.10;51.20;;;;;;4952316;28;20210;-54
2020/12/27 11:55:38;;;;;;;0.70;0.33;;;16.20;51.30;;;;;;4965674;28;20243;-57
2020/12/27 11:58:11;;;;;;;0.43;0.30;;;16.30;50.80;;;;;;4958540;28;20208;-58
2020/12/27 12:00:37;;;;;;;0.20;0.20;;;16.30;50.60;;;;;;4965737;28;20856;-57
2020/12/27 12:03:03;;;;;;;0.63;0.30;;;16.40;50.20;;;;;;4965377;28;20200;-57
2020/12/27 12:05:29;;;;;;;0.97;0.27;;;16.40;50.40;;;;;;4958994;28;20264;-57
2020/12/27 12:07:56;;;;;;;3.37;0.23;;;16.40;50.20;;;;;;4969218;28;20728;-58
2020/12/27 12:10:22;;;;;;;0.87;0.20;;;16.50;50.10;;;;;;4960669;28;20213;-57
2020/12/27 12:12:48;;;;;;;0.40;0.20;;;16.50;50.00;;;;;;4967456;28;20560;-58
2020/12/27 16:31:13;;;;;;;0.70;0.40;;;22.00;44.80;;;;;;4967455;28;20251;-58
2020/12/27 16:33:43;;;;;;;1.70;0.70;;;22.30;44.00;;;;;;4941001;28;20256;-59
2020/12/27 16:36:15;;;;;;;1.17;0.60;;;22.50;43.80;;;;;;4944760;28;20717;-58
2020/12/27 16:38:59;;;;;;;1.37;0.77;;;22.60;43.80;;;;;;4942748;29;20301;-58
2020/12/27 16:41:26;;;;;;;1.10;0.70;;;22.70;43.50;;;;;;4946684;28;20213;-57
2020/12/27 16:43:56;;;;;;;2.50;0.77;;;22.90;43.40;;;;;;4953265;28;20205;-57
2020/12/27 16:46:26;;;;;;;0.90;0.70;;;23.20;43.00;;;;;;4948448;28;20533;-60
2020/12/27 16:48:53;;;;;;;1.23;0.70;;;23.50;42.20;;;;;;4954005;28;20205;-57
2020/12/27 16:51:20;;;;;;;2.40;0.50;;;23.70;41.60;;;;;;4949985;28;20671;-56
2020/12/27 16:53:46;;;;;;;24.60;4.57;;;23.70;41.60;;;;;;4955016;28;20197;-55
2020/12/27 16:56:13;;;;;;;27.33;4.13;;;23.60;42.60;;;;;;4943034;28;20708;-55
2020/12/27 16:58:42;;;;;;;14.20;2.70;;;22.00;47.60;;;;;;4949911;28;20206;-55
2020/12/27 17:01:09;;;;;;;13.40;2.33;;;21.10;48.70;;;;;;4942007;28;20217;-55
2020/12/27 17:03:41;;;;;;;11.07;2.40;;;20.70;49.70;;;;;;4951650;28;20217;-55
2020/12/27 17:06:10;;;;;;;12.03;2.30;;;20.30;50.20;;;;;;4943863;28;20190;-55
2020/12/27 17:08:37;;;;;;;11.80;2.53;;;20.00;50.80;;;;;;4949704;28;20198;-55
2020/12/27 17:11:03;;;;;;;5.40;2.03;;;19.80;50.90;;;;;;4942610;28;20201;-55